Kaiyo — JGBF — position and weather

sailwx.info

Track history (hours):
 
Tides and Currents Weather Stations Pressure Air Temp Water Temp Dewpoint Dewpoint Depression Visibility Wind Speed Wind Dir Waves Ship Positions

Oceanographic research ship Kaiyo (Japan)

Detailed information on ship capabilities available from University of Delaware's Ocean Information Center.

Last reported at 2019-Aug-13 04:26 UTC. Time now 2019-Aug-24 23:07 UTC.
Position N 35°38' E 139°47'.
Warning: this ship's position is 11 days out of date.

Type: Cargo ship. MMSI: 431100049.

Date/timePositionNaut miles runAvg speedWind from/ knotsBaromVisibWave heightAir tempDewpointWater temp
2019-Aug-13 04:26N 35°38' E 139°47'4 5.8
2019-Aug-13 03:40N 35°34' E 139°49'211.6
2019-Aug-13 03:30N 35°33' E 139°51'3 0.7
2019-Aug-12 23:14N 35°32' E 139°54'0 0.0
2019-Aug-12 19:08N 35°32' E 139°54'0 0.0
2019-Aug-12 18:56N 35°32' E 139°54'0 0.0
2019-Aug-12 18:26N 35°32' E 139°54'0 0.0
2019-Aug-12 17:50N 35°32' E 139°54'0 0.0
2019-Aug-12 15:56N 35°32' E 139°54'0 0.0
2019-Aug-12 15:29N 35°32' E 139°54'0 0.0
2019-Aug-12 14:59N 35°32' E 139°54'0 0.0
2019-Aug-12 14:29N 35°32' E 139°54'0 0.0
2019-Aug-12 13:56N 35°32' E 139°54'0 0.0
2019-Aug-12 13:29N 35°32' E 139°54'0 0.0
2019-Aug-12 12:59N 35°32' E 139°54'0 0.0
2019-Aug-12 12:29N 35°32' E 139°54'0 0.0
2019-Aug-12 11:59N 35°32' E 139°54'0 0.0
2019-Aug-12 11:26N 35°32' E 139°54'0 0.0
2019-Aug-12 11:00N 35°32' E 139°54'1 2.8
2019-Aug-12 10:30N 35°31' E 139°53'811.2
2019-Aug-12 09:48N 35°25' E 139°47'311.2
2019-Aug-12 09:30N 35°22' E 139°45'510.0
2019-Aug-12 09:00N 35°17' E 139°46'610.3
2019-Aug-12 08:27N 35°11' E 139°46'  
2019-Aug-09 08:31N 34°04' E 135°02'1 8.2
2019-Aug-09 08:23N 34°05' E 135°02'3 8.0
2019-Aug-09 08:00N 34°08' E 135°03'4 8.1
2019-Aug-09 07:30N 34°12' E 135°06'2 4.8
2019-Aug-09 07:00N 34°13' E 135°09'0 0.0
2019-Aug-09 06:08N 34°13' E 135°09'0 0.0
2019-Aug-09 05:44N 34°13' E 135°09'0 0.0
2019-Aug-09 05:26N 34°13' E 135°09'0 0.0
2019-Aug-09 04:50N 34°13' E 135°09'0 0.0
2019-Aug-09 04:17N 34°13' E 135°09'0 0.0
2019-Aug-09 03:44N 34°13' E 135°09'0 0.0
2019-Aug-09 03:05N 34°13' E 135°09'0 0.0
2019-Aug-09 02:56N 34°13' E 135°09'0 0.0
2019-Aug-09 01:56N 34°13' E 135°09'0 0.0
2019-Aug-09 01:26N 34°13' E 135°09'0 0.0
2019-Aug-09 00:47N 34°13' E 135°09'0 0.0
2019-Aug-09 00:23N 34°13' E 135°09'0 0.0
2019-Aug-08 23:56N 34°13' E 135°09'0 0.0
2019-Aug-08 23:26N 34°13' E 135°09'0 0.0
2019-Aug-08 22:59N 34°13' E 135°09'0 0.0
2019-Aug-08 22:29N 34°13' E 135°09'0 0.0
2019-Aug-08 21:59N 34°13' E 135°09'0 0.0
2019-Aug-08 21:23N 34°13' E 135°09'0 0.0
2019-Aug-08 20:23N 34°13' E 135°09'0 0.0
2019-Aug-08 19:56N 34°13' E 135°09'0 0.0
2019-Aug-08 19:17N 34°13' E 135°09'0 0.0
2019-Aug-08 18:59N 34°13' E 135°09'0 0.0
2019-Aug-08 18:23N 34°13' E 135°09'0 0.0
2019-Aug-08 17:53N 34°13' E 135°09'0 0.0
2019-Aug-08 17:29N 34°13' E 135°09'0 0.0
2019-Aug-08 16:41N 34°13' E 135°09'0 0.0
2019-Aug-08 16:23N 34°13' E 135°09'0 0.0
2019-Aug-08 15:47N 34°13' E 135°09'0 0.0
2019-Aug-08 15:29N 34°13' E 135°09'0 0.0
2019-Aug-08 14:53N 34°13' E 135°09'0 0.0
2019-Aug-08 14:23N 34°13' E 135°09'0 0.0
2019-Aug-08 13:59N 34°13' E 135°09'0 0.0
2019-Aug-08 13:29N 34°13' E 135°09'0 0.0
2019-Aug-08 12:41N 34°13' E 135°09'0 0.0
2019-Aug-08 12:17N 34°13' E 135°09'0 0.0
2019-Aug-08 11:59N 34°13' E 135°09'0 0.0
2019-Aug-08 11:23N 34°13' E 135°09'0 0.0
2019-Aug-08 10:56N 34°13' E 135°09'0 0.0
2019-Aug-08 10:29N 34°13' E 135°09'0 0.0
2019-Aug-08 09:53N 34°13' E 135°09'0 0.0
2019-Aug-08 09:29N 34°13' E 135°09'0 0.0
2019-Aug-08 08:56N 34°13' E 135°09'0 0.0
2019-Aug-08 08:20N 34°13' E 135°09'0 0.0
2019-Aug-08 07:50N 34°13' E 135°09'0 0.0
2019-Aug-08 07:26N 34°13' E 135°09'0 0.0
2019-Aug-08 06:35N 34°13' E 135°09'0 0.0
2019-Aug-08 06:29N 34°13' E 135°09'0 0.0
2019-Aug-08 05:59N 34°13' E 135°09'0 0.0
2019-Aug-08 05:29N 34°13' E 135°09'0 0.0
2019-Aug-08 04:55N 34°13' E 135°09'0 0.0
2019-Aug-08 04:25N 34°13' E 135°09'0 0.0
2019-Aug-08 03:58N 34°13' E 135°09'0 0.0
2019-Aug-08 03:19N 34°13' E 135°09'0 0.0
2019-Aug-08 02:37N 34°13' E 135°09'0 0.0
2019-Aug-08 02:25N 34°13' E 135°09'0 0.0
2019-Aug-08 01:55N 34°13' E 135°09'0 0.0
2019-Aug-08 01:04N 34°13' E 135°09'0 0.0
2019-Aug-08 01:00N 34°13' E 135°09'3 5.1
2019-Aug-08 00:30N 34°13' E 135°06'2 3.2
2019-Aug-08 00:00N 34°13' E 135°04'0 0.7
2019-Aug-07 23:30N 34°13' E 135°04'0 0.4
2019-Aug-07 23:00N 34°12' E 135°04'0 0.3
2019-Aug-07 22:30N 34°12' E 135°04'0 0.3
2019-Aug-07 22:00N 34°12' E 135°04'0 0.3
2019-Aug-07 21:30N 34°12' E 135°04'0 0.2
2019-Aug-07 21:00N 34°12' E 135°04'0 0.3
2019-Aug-07 20:30N 34°12' E 135°04'0 0.3
2019-Aug-07 20:00N 34°12' E 135°04'0 0.4
2019-Aug-07 19:30N 34°11' E 135°04'0 0.6
2019-Aug-07 19:00N 34°11' E 135°04'0 0.6
2019-Aug-07 18:30N 34°11' E 135°04'2 3.8
2019-Aug-07 18:00N 34°13' E 135°04'0 0.8
2019-Aug-07 17:30N 34°12' E 135°04'1 1.1
2019-Aug-07 17:00N 34°12' E 135°04'1 1.2
2019-Aug-07 16:30N 34°11' E 135°04'1 1.3
2019-Aug-07 16:00N 34°10' E 135°04'1 1.3
2019-Aug-07 15:30N 34°10' E 135°04'4 7.9
2019-Aug-07 15:00N 34°06' E 135°02'2 0.2
2019-Aug-06 23:57N 34°08' E 135°03'511.1
2019-Aug-06 23:31N 34°12' E 135°06'2 4.0
2019-Aug-06 23:00N 34°13' E 135°09'0 0.0
2019-Aug-06 22:30N 34°13' E 135°09'0 0.0
2019-Aug-06 22:00N 34°13' E 135°09'0 0.0
2019-Aug-06 21:30N 34°13' E 135°09'0 0.0
2019-Aug-06 21:00N 34°13' E 135°09'0 0.0
2019-Aug-06 20:30N 34°13' E 135°09'0 0.0
2019-Aug-06 19:54N 34°13' E 135°09'0 0.0
2019-Aug-06 19:24N 34°13' E 135°09'0 0.0
2019-Aug-06 19:00N 34°13' E 135°09'0 0.0
2019-Aug-06 18:30N 34°13' E 135°09'0 0.0
2019-Aug-06 18:00N 34°13' E 135°09'0 0.0
2019-Aug-06 17:30N 34°13' E 135°09'0 0.0
2019-Aug-06 17:00N 34°13' E 135°09'0 0.0
2019-Aug-06 16:30N 34°13' E 135°09'0 0.0
2019-Aug-06 16:00N 34°13' E 135°09'0 0.0
2019-Aug-06 15:27N 34°13' E 135°09'0 0.0
2019-Aug-06 15:00N 34°13' E 135°09'0 0.0
2019-Aug-06 14:27N 34°13' E 135°09'0 0.0
2019-Aug-06 14:00N 34°13' E 135°09'0 0.0
2019-Aug-06 13:30N 34°13' E 135°09'0 0.0
2019-Aug-06 12:57N 34°13' E 135°09'0 0.0
2019-Aug-06 12:27N 34°13' E 135°09'0 0.0
2019-Aug-06 12:00N 34°13' E 135°09'0 0.0
2019-Aug-06 11:30N 34°13' E 135°09'0 0.0
2019-Aug-06 11:00N 34°13' E 135°09'0 0.0
2019-Aug-06 10:30N 34°13' E 135°09'0 0.0
2019-Aug-06 10:00N 34°13' E 135°09'0 0.0
2019-Aug-06 09:30N 34°13' E 135°09'0 0.0
2019-Aug-06 08:59N 34°13' E 135°09'0 0.0
2019-Aug-06 08:29N 34°13' E 135°09'0 0.0
2019-Aug-06 07:59N 34°13' E 135°09'0 0.0
2019-Aug-06 07:29N 34°13' E 135°09'1 1.5
2019-Aug-06 07:00N 34°13' E 135°08'5 9.7
2019-Aug-06 06:29N 34°12' E 135°02'1810.9
2019-Aug-06 04:53N 34°12' E 134°40'611.4
2019-Aug-06 04:19N 34°17' E 134°35'410.8
2019-Aug-06 03:55N 34°18' E 134°30'610.9
2019-Aug-06 03:19N 34°21' E 134°23'  
Track history (hours):
 
Tides and Currents Weather Stations Pressure Air Temp Water Temp Dewpoint Dewpoint Depression Visibility Wind Speed Wind Dir Waves Ship Positions

Oceanographic research ship Kaiyo (Japan)

Detailed information on ship capabilities available from University of Delaware's Ocean Information Center.

Last reported at 2019-Aug-13 04:26 UTC. Time now 2019-Aug-24 23:07 UTC.
Position N 35°38' E 139°47'.
Warning: this ship's position is 11 days out of date.

Type: Cargo ship. MMSI: 431100049.

Date/timePositionNaut miles runAvg speedWind from/ knotsBaromVisibWave heightAir tempDewpointWater temp
2019-Aug-13 04:26N 35°38' E 139°47'4 5.8
2019-Aug-13 03:40N 35°34' E 139°49'211.6
2019-Aug-13 03:30N 35°33' E 139°51'3 0.7
2019-Aug-12 23:14N 35°32' E 139°54'0 0.0
2019-Aug-12 19:08N 35°32' E 139°54'0 0.0
2019-Aug-12 18:56N 35°32' E 139°54'0 0.0
2019-Aug-12 18:26N 35°32' E 139°54'0 0.0
2019-Aug-12 17:50N 35°32' E 139°54'0 0.0
2019-Aug-12 15:56N 35°32' E 139°54'0 0.0
2019-Aug-12 15:29N 35°32' E 139°54'0 0.0
2019-Aug-12 14:59N 35°32' E 139°54'0 0.0
2019-Aug-12 14:29N 35°32' E 139°54'0 0.0
2019-Aug-12 13:56N 35°32' E 139°54'0 0.0
2019-Aug-12 13:29N 35°32' E 139°54'0 0.0
2019-Aug-12 12:59N 35°32' E 139°54'0 0.0
2019-Aug-12 12:29N 35°32' E 139°54'0 0.0
2019-Aug-12 11:59N 35°32' E 139°54'0 0.0
2019-Aug-12 11:26N 35°32' E 139°54'0 0.0
2019-Aug-12 11:00N 35°32' E 139°54'1 2.8
2019-Aug-12 10:30N 35°31' E 139°53'811.2
2019-Aug-12 09:48N 35°25' E 139°47'311.2
2019-Aug-12 09:30N 35°22' E 139°45'510.0
2019-Aug-12 09:00N 35°17' E 139°46'610.3
2019-Aug-12 08:27N 35°11' E 139°46'  
2019-Aug-09 08:31N 34°04' E 135°02'1 8.2
2019-Aug-09 08:23N 34°05' E 135°02'3 8.0
2019-Aug-09 08:00N 34°08' E 135°03'4 8.1
2019-Aug-09 07:30N 34°12' E 135°06'2 4.8
2019-Aug-09 07:00N 34°13' E 135°09'0 0.0
2019-Aug-09 06:08N 34°13' E 135°09'0 0.0
2019-Aug-09 05:44N 34°13' E 135°09'0 0.0
2019-Aug-09 05:26N 34°13' E 135°09'0 0.0
2019-Aug-09 04:50N 34°13' E 135°09'0 0.0
2019-Aug-09 04:17N 34°13' E 135°09'0 0.0
2019-Aug-09 03:44N 34°13' E 135°09'0 0.0
2019-Aug-09 03:05N 34°13' E 135°09'0 0.0
2019-Aug-09 02:56N 34°13' E 135°09'0 0.0
2019-Aug-09 01:56N 34°13' E 135°09'0 0.0
2019-Aug-09 01:26N 34°13' E 135°09'0 0.0
2019-Aug-09 00:47N 34°13' E 135°09'0 0.0
2019-Aug-09 00:23N 34°13' E 135°09'0 0.0
2019-Aug-08 23:56N 34°13' E 135°09'0 0.0
2019-Aug-08 23:26N 34°13' E 135°09'0 0.0
2019-Aug-08 22:59N 34°13' E 135°09'0 0.0
2019-Aug-08 22:29N 34°13' E 135°09'0 0.0
2019-Aug-08 21:59N 34°13' E 135°09'0 0.0
2019-Aug-08 21:23N 34°13' E 135°09'0 0.0
2019-Aug-08 20:23N 34°13' E 135°09'0 0.0
2019-Aug-08 19:56N 34°13' E 135°09'0 0.0
2019-Aug-08 19:17N 34°13' E 135°09'0 0.0
2019-Aug-08 18:59N 34°13' E 135°09'0 0.0
2019-Aug-08 18:23N 34°13' E 135°09'0 0.0
2019-Aug-08 17:53N 34°13' E 135°09'0 0.0
2019-Aug-08 17:29N 34°13' E 135°09'0 0.0
2019-Aug-08 16:41N 34°13' E 135°09'0 0.0
2019-Aug-08 16:23N 34°13' E 135°09'0 0.0
2019-Aug-08 15:47N 34°13' E 135°09'0 0.0
2019-Aug-08 15:29N 34°13' E 135°09'0 0.0
2019-Aug-08 14:53N 34°13' E 135°09'0 0.0
2019-Aug-08 14:23N 34°13' E 135°09'0 0.0
2019-Aug-08 13:59N 34°13' E 135°09'0 0.0
2019-Aug-08 13:29N 34°13' E 135°09'0 0.0
2019-Aug-08 12:41N 34°13' E 135°09'0 0.0
2019-Aug-08 12:17N 34°13' E 135°09'0 0.0
2019-Aug-08 11:59N 34°13' E 135°09'0 0.0
2019-Aug-08 11:23N 34°13' E 135°09'0 0.0
2019-Aug-08 10:56N 34°13' E 135°09'0 0.0
2019-Aug-08 10:29N 34°13' E 135°09'0 0.0
2019-Aug-08 09:53N 34°13' E 135°09'0 0.0
2019-Aug-08 09:29N 34°13' E 135°09'0 0.0
2019-Aug-08 08:56N 34°13' E 135°09'0 0.0
2019-Aug-08 08:20N 34°13' E 135°09'0 0.0
2019-Aug-08 07:50N 34°13' E 135°09'0 0.0
2019-Aug-08 07:26N 34°13' E 135°09'0 0.0
2019-Aug-08 06:35N 34°13' E 135°09'0 0.0
2019-Aug-08 06:29N 34°13' E 135°09'0 0.0
2019-Aug-08 05:59N 34°13' E 135°09'0 0.0
2019-Aug-08 05:29N 34°13' E 135°09'0 0.0
2019-Aug-08 04:55N 34°13' E 135°09'0 0.0
2019-Aug-08 04:25N 34°13' E 135°09'0 0.0
2019-Aug-08 03:58N 34°13' E 135°09'0 0.0
2019-Aug-08 03:19N 34°13' E 135°09'0 0.0
2019-Aug-08 02:37N 34°13' E 135°09'0 0.0
2019-Aug-08 02:25N 34°13' E 135°09'0 0.0
2019-Aug-08 01:55N 34°13' E 135°09'0 0.0
2019-Aug-08 01:04N 34°13' E 135°09'0 0.0
2019-Aug-08 01:00N 34°13' E 135°09'3 5.1
2019-Aug-08 00:30N 34°13' E 135°06'2 3.2
2019-Aug-08 00:00N 34°13' E 135°04'0 0.7
2019-Aug-07 23:30N 34°13' E 135°04'0 0.4
2019-Aug-07 23:00N 34°12' E 135°04'0 0.3
2019-Aug-07 22:30N 34°12' E 135°04'0 0.3
2019-Aug-07 22:00N 34°12' E 135°04'0 0.3
2019-Aug-07 21:30N 34°12' E 135°04'0 0.2
2019-Aug-07 21:00N 34°12' E 135°04'0 0.3
2019-Aug-07 20:30N 34°12' E 135°04'0 0.3
2019-Aug-07 20:00N 34°12' E 135°04'0 0.4
2019-Aug-07 19:30N 34°11' E 135°04'0 0.6
2019-Aug-07 19:00N 34°11' E 135°04'0 0.6
2019-Aug-07 18:30N 34°11' E 135°04'2 3.8
2019-Aug-07 18:00N 34°13' E 135°04'0 0.8
2019-Aug-07 17:30N 34°12' E 135°04'1 1.1
2019-Aug-07 17:00N 34°12' E 135°04'1 1.2
2019-Aug-07 16:30N 34°11' E 135°04'1 1.3
2019-Aug-07 16:00N 34°10' E 135°04'1 1.3
2019-Aug-07 15:30N 34°10' E 135°04'4 7.9
2019-Aug-07 15:00N 34°06' E 135°02'2 0.2
2019-Aug-06 23:57N 34°08' E 135°03'511.1
2019-Aug-06 23:31N 34°12' E 135°06'2 4.0
2019-Aug-06 23:00N 34°13' E 135°09'0 0.0
2019-Aug-06 22:30N 34°13' E 135°09'0 0.0
2019-Aug-06 22:00N 34°13' E 135°09'0 0.0
2019-Aug-06 21:30N 34°13' E 135°09'0 0.0
2019-Aug-06 21:00N 34°13' E 135°09'0 0.0
2019-Aug-06 20:30N 34°13' E 135°09'0 0.0
2019-Aug-06 19:54N 34°13' E 135°09'0 0.0
2019-Aug-06 19:24N 34°13' E 135°09'0 0.0
2019-Aug-06 19:00N 34°13' E 135°09'0 0.0
2019-Aug-06 18:30N 34°13' E 135°09'0 0.0
2019-Aug-06 18:00N 34°13' E 135°09'0 0.0
2019-Aug-06 17:30N 34°13' E 135°09'0 0.0
2019-Aug-06 17:00N 34°13' E 135°09'0 0.0
2019-Aug-06 16:30N 34°13' E 135°09'0 0.0
2019-Aug-06 16:00N 34°13' E 135°09'0 0.0
2019-Aug-06 15:27N 34°13' E 135°09'0 0.0
2019-Aug-06 15:00N 34°13' E 135°09'0 0.0
2019-Aug-06 14:27N 34°13' E 135°09'0 0.0
2019-Aug-06 14:00N 34°13' E 135°09'0 0.0
2019-Aug-06 13:30N 34°13' E 135°09'0 0.0
2019-Aug-06 12:57N 34°13' E 135°09'0 0.0
2019-Aug-06 12:27N 34°13' E 135°09'0 0.0
2019-Aug-06 12:00N 34°13' E 135°09'0 0.0
2019-Aug-06 11:30N 34°13' E 135°09'0 0.0
2019-Aug-06 11:00N 34°13' E 135°09'0 0.0
2019-Aug-06 10:30N 34°13' E 135°09'0 0.0
2019-Aug-06 10:00N 34°13' E 135°09'0 0.0
2019-Aug-06 09:30N 34°13' E 135°09'0 0.0
2019-Aug-06 08:59N 34°13' E 135°09'0 0.0
2019-Aug-06 08:29N 34°13' E 135°09'0 0.0
2019-Aug-06 07:59N 34°13' E 135°09'0 0.0
2019-Aug-06 07:29N 34°13' E 135°09'1 1.5
2019-Aug-06 07:00N 34°13' E 135°08'5 9.7
2019-Aug-06 06:29N 34°12' E 135°02'1810.9
2019-Aug-06 04:53N 34°12' E 134°40'611.4
2019-Aug-06 04:19N 34°17' E 134°35'410.8
2019-Aug-06 03:55N 34°18' E 134°30'610.9
2019-Aug-06 03:19N 34°21' E 134°23'  

Dump ship's entire track history